Time;durP1;ratioP1;P1;durP2;ratioP2;P2;SDS_P1;SDS_P2;PMS_P1;PMS_P2;Temp;Humidity;BMP_temperature;BMP_pressure;BME280_temperature;BME280_humidity;BME280_pressure;Samples;Min_cycle;Max_cycle;Signal;HPM_P1;HPM_P2
2023/04/22 00:01:01;;;;;;;8.95;6.82;;;12.70;99.90;;;;;;5086406;28;20073;-71
2023/04/22 00:03:27;;;;;;;9.55;6.88;;;12.80;99.90;;;;;;5110093;28;20036;-70
2023/04/22 00:05:53;;;;;;;9.05;6.35;;;12.70;99.90;;;;;;5093373;28;20431;-70
2023/04/22 00:08:19;;;;;;;10.75;6.95;;;12.80;99.90;;;;;;5076503;28;20036;-70
2023/04/22 00:10:45;;;;;;;8.15;5.05;;;12.80;99.90;;;;;;5102439;28;20039;-70
2023/04/22 00:13:10;;;;;;;9.52;6.20;;;12.80;99.90;;;;;;5092944;28;20386;-70
2023/04/22 00:15:36;;;;;;;9.20;5.70;;;12.90;99.90;;;;;;5113846;28;20483;-70
2023/04/22 00:18:02;;;;;;;9.93;6.22;;;12.90;99.90;;;;;;5113640;28;20039;-70
2023/04/22 00:20:28;;;;;;;9.05;6.20;;;13.00;99.90;;;;;;5112357;28;20035;-70
2023/04/22 00:22:53;;;;;;;11.60;6.85;;;12.90;99.90;;;;;;5112474;28;20081;-72
2023/04/22 00:25:19;;;;;;;8.63;6.00;;;12.70;99.90;;;;;;5093005;28;20068;-71
2023/04/22 00:27:45;;;;;;;9.38;7.00;;;12.60;99.90;;;;;;5108315;28;20040;-70
2023/04/22 00:30:11;;;;;;;9.52;6.05;;;12.70;99.90;;;;;;5113404;28;20038;-71
2023/04/22 00:32:37;;;;;;;10.00;7.15;;;12.60;99.90;;;;;;5095297;28;20480;-71
2023/04/22 00:35:03;;;;;;;9.45;7.03;;;12.50;99.90;;;;;;5081257;28;20055;-71
2023/04/22 00:37:28;;;;;;;9.95;7.20;;;12.30;99.90;;;;;;5092942;28;20050;-71
2023/04/22 00:39:54;;;;;;;10.35;7.03;;;12.40;99.90;;;;;;5092803;28;20047;-71
2023/04/22 00:42:20;;;;;;;10.25;7.30;;;12.40;99.90;;;;;;5108683;28;20475;-71
2023/04/22 00:44:47;;;;;;;8.45;6.38;;;12.20;99.90;;;;;;5096384;28;20040;-71
2023/04/22 00:47:12;;;;;;;9.77;6.28;;;12.20;99.90;;;;;;5092285;28;20044;-71
2023/04/22 00:49:38;;;;;;;9.35;6.07;;;12.20;99.90;;;;;;5092705;28;20040;-70
2023/04/22 00:52:04;;;;;;;9.82;7.43;;;12.20;99.90;;;;;;5092808;28;20130;-70
2023/04/22 00:54:30;;;;;;;8.70;6.07;;;12.10;99.90;;;;;;5092110;28;20028;-71
2023/04/22 00:56:57;;;;;;;9.60;7.05;;;12.10;99.90;;;;;;5092398;28;20059;-71
2023/04/22 00:59:24;;;;;;;10.88;7.80;;;12.10;99.90;;;;;;5105755;27;20047;-71
2023/04/22 01:01:50;;;;;;;10.80;7.32;;;12.00;99.90;;;;;;5111773;28;20043;-70
2023/04/22 01:04:16;;;;;;;10.40;7.80;;;12.00;99.90;;;;;;5100233;28;20071;-71
2023/04/22 01:06:42;;;;;;;8.65;6.38;;;12.00;99.90;;;;;;5092455;28;20133;-70
2023/04/22 01:09:08;;;;;;;11.95;7.57;;;11.90;99.90;;;;;;5099040;28;20043;-70
2023/04/22 01:11:34;;;;;;;10.00;7.40;;;11.90;99.90;;;;;;5093276;28;20043;-70
2023/04/22 01:14:01;;;;;;;10.45;7.85;;;11.80;99.90;;;;;;5092551;28;20032;-70
2023/04/22 01:16:28;;;;;;;10.82;7.57;;;11.70;99.90;;;;;;5075398;28;20044;-70
2023/04/22 01:18:54;;;;;;;9.65;6.68;;;11.60;99.90;;;;;;5095073;28;20046;-70
2023/04/22 01:21:19;;;;;;;9.65;7.50;;;11.50;99.90;;;;;;5082824;28;20492;-70
2023/04/22 01:23:45;;;;;;;11.55;7.65;;;11.50;99.90;;;;;;5095565;28;20883;-70
2023/04/22 01:26:11;;;;;;;9.55;7.53;;;11.50;99.90;;;;;;5095383;28;20050;-71
2023/04/22 01:28:37;;;;;;;10.95;8.15;;;11.40;99.90;;;;;;5095414;28;20037;-70
2023/04/22 01:31:03;;;;;;;12.65;9.02;;;11.50;99.90;;;;;;5106656;28;20038;-70
2023/04/22 01:33:29;;;;;;;12.93;8.73;;;11.50;99.90;;;;;;5110829;28;20031;-70
2023/04/22 01:35:55;;;;;;;8.60;6.53;;;11.40;99.90;;;;;;5111309;28;20086;-70
2023/04/22 01:38:20;;;;;;;10.63;7.00;;;11.40;99.90;;;;;;5110185;28;20067;-70
2023/04/22 01:40:46;;;;;;;8.80;6.53;;;11.50;99.90;;;;;;5111273;28;20066;-70
2023/04/22 01:43:12;;;;;;;9.73;7.30;;;11.50;99.90;;;;;;5110273;28;20094;-70
2023/04/22 01:45:37;;;;;;;10.05;7.55;;;11.60;99.90;;;;;;5091136;28;20039;-70
2023/04/22 01:48:05;;;;;;;9.43;7.32;;;11.60;99.90;;;;;;5092129;28;20031;-70
2023/04/22 01:50:31;;;;;;;9.57;7.40;;;11.60;99.90;;;;;;5096655;28;20036;-70
2023/04/22 01:52:57;;;;;;;9.98;7.15;;;11.50;99.90;;;;;;5112129;28;20044;-70
2023/04/22 01:55:23;;;;;;;11.95;7.53;;;11.60;99.90;;;;;;5096165;28;20107;-70
2023/04/22 01:57:49;;;;;;;11.93;7.80;;;11.60;99.90;;;;;;5116357;28;20479;-71
2023/04/22 02:00:15;;;;;;;11.40;7.90;;;11.60;99.90;;;;;;5109949;28;20491;-70
2023/04/22 02:02:40;;;;;;;9.70;6.97;;;11.60;99.90;;;;;;5112517;28;20124;-70
2023/04/22 02:05:07;;;;;;;8.45;6.00;;;11.50;99.90;;;;;;5098370;28;20118;-70
2023/04/22 02:07:33;;;;;;;8.82;6.22;;;11.50;99.90;;;;;;5097325;28;20036;-70
2023/04/22 02:10:00;;;;;;;9.07;5.63;;;11.50;99.90;;;;;;5115173;28;20038;-71
2023/04/22 02:12:25;;;;;;;7.60;5.03;;;11.50;99.90;;;;;;5082299;28;20036;-70
2023/04/22 02:14:51;;;;;;;6.60;4.57;;;11.50;99.90;;;;;;5113657;28;20047;-70
2023/04/22 02:17:17;;;;;;;6.35;4.40;;;11.50;99.90;;;;;;5112882;28;20051;-70
2023/04/22 02:19:42;;;;;;;6.18;4.13;;;11.50;99.90;;;;;;5115081;28;20062;-71
2023/04/22 02:22:08;;;;;;;10.05;5.60;;;11.50;99.90;;;;;;5108916;28;20096;-71
2023/04/22 02:24:34;;;;;;;6.68;4.72;;;11.40;99.90;;;;;;5082176;28;20496;-71
2023/04/22 02:27:00;;;;;;;7.70;5.45;;;11.40;99.90;;;;;;5098860;28;20038;-71
2023/04/22 02:29:26;;;;;;;7.30;5.32;;;11.30;99.90;;;;;;5114533;28;20031;-70
2023/04/22 02:31:51;;;;;;;9.57;6.40;;;11.30;99.90;;;;;;5099585;28;20035;-70
2023/04/22 02:34:17;;;;;;;7.00;4.35;;;11.40;99.90;;;;;;5094640;28;20040;-70
2023/04/22 02:36:42;;;;;;;7.55;4.88;;;11.30;99.90;;;;;;5095488;28;20080;-70
2023/04/22 02:39:08;;;;;;;7.85;5.97;;;11.20;99.90;;;;;;5101431;28;20032;-70
2023/04/22 02:41:34;;;;;;;8.65;5.57;;;11.20;99.90;;;;;;5077179;28;20075;-71
2023/04/22 02:44:00;;;;;;;7.97;5.40;;;11.20;99.90;;;;;;5093283;28;20043;-71
2023/04/22 02:46:25;;;;;;;7.93;5.55;;;11.20;99.90;;;;;;5094864;28;20071;-70
2023/04/22 02:48:51;;;;;;;9.02;5.80;;;11.20;99.90;;;;;;5103578;28;20027;-71
2023/04/22 02:51:17;;;;;;;7.80;5.50;;;11.20;99.90;;;;;;5097792;28;20122;-71
2023/04/22 02:53:42;;;;;;;8.63;5.60;;;11.20;99.90;;;;;;5095853;28;20036;-71
2023/04/22 02:56:08;;;;;;;7.53;5.43;;;11.10;99.90;;;;;;5114951;28;20052;-71
2023/04/22 02:58:33;;;;;;;8.13;5.70;;;11.10;99.90;;;;;;5096078;28;20559;-71
2023/04/22 03:00:59;;;;;;;8.30;5.55;;;11.00;99.90;;;;;;5112032;28;20066;-71
2023/04/22 03:03:25;;;;;;;7.35;5.00;;;11.00;99.90;;;;;;5109718;28;20032;-71
2023/04/22 03:05:51;;;;;;;6.95;4.80;;;10.90;99.90;;;;;;5097521;28;20039;-70
2023/04/22 03:08:18;;;;;;;7.68;5.40;;;10.80;99.90;;;;;;5098055;28;20513;-71
2023/04/22 03:10:43;;;;;;;8.32;5.55;;;10.80;99.90;;;;;;5123889;27;20067;-71
2023/04/22 03:13:09;;;;;;;7.95;5.35;;;10.80;99.90;;;;;;5111163;28;20067;-70
2023/04/22 03:15:34;;;;;;;8.32;5.65;;;10.80;99.90;;;;;;5085758;28;20055;-70
2023/04/22 03:18:00;;;;;;;7.30;5.32;;;10.80;99.90;;;;;;5097890;28;20032;-70
2023/04/22 03:20:25;;;;;;;7.15;4.90;;;10.70;99.90;;;;;;5111056;27;20036;-70
2023/04/22 03:22:51;;;;;;;6.32;4.50;;;10.70;99.90;;;;;;5113682;28;20032;-70
2023/04/22 03:25:16;;;;;;;6.75;4.72;;;10.70;99.90;;;;;;5083242;28;20032;-71
2023/04/22 03:27:42;;;;;;;6.88;4.63;;;10.70;99.90;;;;;;5083253;28;20120;-71
2023/04/22 03:30:08;;;;;;;7.18;4.75;;;10.60;99.90;;;;;;5096869;28;20031;-70
2023/04/22 03:32:33;;;;;;;6.93;5.05;;;10.60;99.90;;;;;;5095563;28;20446;-70
2023/04/22 03:35:00;;;;;;;6.45;4.32;;;10.60;99.90;;;;;;5081121;28;20101;-70
2023/04/22 03:37:25;;;;;;;7.30;4.65;;;10.60;99.90;;;;;;5106751;28;20074;-70
2023/04/22 03:39:51;;;;;;;6.57;4.40;;;10.60;99.90;;;;;;5097563;28;20062;-70
2023/04/22 03:42:16;;;;;;;5.70;4.05;;;10.50;99.90;;;;;;5086444;28;20088;-70
2023/04/22 03:44:42;;;;;;;6.50;4.47;;;10.50;99.90;;;;;;5110366;28;20381;-70
2023/04/22 03:47:07;;;;;;;6.68;4.65;;;10.50;99.90;;;;;;5113404;28;20054;-70
2023/04/22 03:49:33;;;;;;;9.82;5.57;;;10.40;99.90;;;;;;5114404;28;20035;-70
2023/04/22 03:51:59;;;;;;;6.95;5.07;;;10.30;99.90;;;;;;5094946;28;20036;-70
2023/04/22 03:54:25;;;;;;;6.28;4.07;;;10.30;99.90;;;;;;5093062;28;20551;-71
2023/04/22 03:56:51;;;;;;;7.30;4.20;;;10.30;99.90;;;;;;5076088;28;20507;-70
2023/04/22 03:59:17;;;;;;;6.75;4.55;;;10.30;99.90;;;;;;5093880;28;20044;-70
2023/04/22 04:01:45;;;;;;;8.02;4.63;;;10.20;99.90;;;;;;5107902;28;20048;-70
2023/04/22 04:04:10;;;;;;;7.43;4.70;;;10.10;99.90;;;;;;5104476;28;20046;-70
2023/04/22 04:06:36;;;;;;;6.95;5.03;;;10.10;99.90;;;;;;5093461;28;20126;-70
2023/04/22 04:09:02;;;;;;;7.55;5.65;;;10.00;99.90;;;;;;5092887;28;20488;-71
2023/04/22 04:11:28;;;;;;;7.30;5.82;;;10.10;99.90;;;;;;5089202;28;20039;-71
2023/04/22 04:13:53;;;;;;;5.45;3.83;;;10.10;99.90;;;;;;5111055;28;20457;-71
2023/04/22 04:16:19;;;;;;;7.03;5.13;;;10.10;99.90;;;;;;5113644;28;20122;-71
2023/04/22 04:18:45;;;;;;;7.15;4.68;;;10.00;99.90;;;;;;5094979;28;20043;-71
2023/04/22 04:21:10;;;;;;;10.25;6.35;;;10.00;99.90;;;;;;5094668;28;20575;-71
2023/04/22 04:23:36;;;;;;;8.25;5.53;;;10.00;99.90;;;;;;5109233;28;20048;-70
2023/04/22 04:26:04;;;;;;;10.25;7.30;;;9.90;99.90;;;;;;5093110;28;20040;-70
2023/04/22 04:28:31;;;;;;;9.98;7.07;;;9.90;99.90;;;;;;5092885;28;20081;-70
2023/04/22 04:31:01;;;;;;;10.05;7.20;;;9.80;99.90;;;;;;5084617;28;20073;-71
2023/04/22 04:33:28;;;;;;;9.70;7.10;;;9.80;99.90;;;;;;5092299;28;20047;-70
2023/04/22 04:35:53;;;;;;;8.98;6.50;;;9.80;99.90;;;;;;5093237;28;20052;-70
2023/04/22 04:38:19;;;;;;;8.85;5.85;;;9.80;99.90;;;;;;5076863;28;20040;-70
2023/04/22 04:40:44;;;;;;;10.80;8.07;;;9.80;99.90;;;;;;5086669;28;20540;-71
2023/04/22 04:43:11;;;;;;;9.77;6.65;;;9.80;99.90;;;;;;5092812;28;20039;-70
2023/04/22 04:45:38;;;;;;;9.80;6.95;;;9.80;99.90;;;;;;5109843;28;20118;-70
2023/04/22 04:48:06;;;;;;;10.20;8.13;;;9.80;99.90;;;;;;5095141;28;20043;-70
2023/04/22 04:50:32;;;;;;;10.85;8.68;;;9.70;99.90;;;;;;5111962;28;20088;-71
2023/04/22 04:52:57;;;;;;;9.70;7.40;;;9.80;99.90;;;;;;5110717;27;20032;-70
2023/04/22 04:55:23;;;;;;;11.48;8.70;;;9.70;99.90;;;;;;5091840;28;20416;-71
2023/04/22 04:57:48;;;;;;;13.98;9.13;;;9.90;99.90;;;;;;5092727;28;20407;-72
2023/04/22 05:00:14;;;;;;;10.98;8.30;;;9.80;99.90;;;;;;5110400;28;20082;-71
2023/04/22 05:02:40;;;;;;;11.38;8.38;;;9.80;99.90;;;;;;5095836;28;20046;-72
2023/04/22 05:05:06;;;;;;;12.13;8.32;;;9.80;99.90;;;;;;5107913;28;20040;-71
2023/04/22 05:07:32;;;;;;;12.10;8.90;;;10.00;99.90;;;;;;5095718;28;20079;-71
2023/04/22 05:09:59;;;;;;;11.48;8.27;;;10.10;99.90;;;;;;5093713;28;20070;-72
2023/04/22 05:12:24;;;;;;;12.40;10.40;;;10.20;99.90;;;;;;5110755;28;20039;-71
2023/04/22 05:14:50;;;;;;;12.38;9.02;;;10.10;99.90;;;;;;5099966;28;20109;-71
2023/04/22 05:17:15;;;;;;;12.43;9.15;;;10.10;99.90;;;;;;5107062;28;20039;-71
2023/04/22 05:19:41;;;;;;;12.45;9.60;;;10.10;99.90;;;;;;5112303;28;20082;-71
2023/04/22 05:22:06;;;;;;;12.20;9.25;;;10.10;99.90;;;;;;5089904;28;20118;-71
2023/04/22 05:24:32;;;;;;;11.13;8.48;;;10.10;99.90;;;;;;5099189;28;20039;-71
2023/04/22 05:26:59;;;;;;;13.77;9.85;;;10.10;99.90;;;;;;5111103;28;20036;-71
2023/04/22 05:29:25;;;;;;;13.30;9.55;;;10.20;99.90;;;;;;5092137;28;20047;-71
2023/04/22 05:31:50;;;;;;;11.93;10.45;;;10.20;99.90;;;;;;5090274;28;20489;-71
2023/04/22 05:34:16;;;;;;;11.75;8.88;;;10.30;99.90;;;;;;5117549;28;20032;-71
2023/04/22 05:36:41;;;;;;;12.45;9.82;;;10.30;99.90;;;;;;5089102;28;20039;-71
2023/04/22 05:39:07;;;;;;;12.65;8.85;;;10.30;99.90;;;;;;5088378;28;20046;-71
2023/04/22 05:41:33;;;;;;;15.18;9.15;;;10.40;99.90;;;;;;5110003;28;20043;-71
2023/04/22 05:43:58;;;;;;;11.43;9.00;;;10.60;99.90;;;;;;5090098;28;20082;-71
2023/04/22 05:46:24;;;;;;;11.30;8.98;;;10.70;99.90;;;;;;5091983;28;20574;-71
2023/04/22 05:48:50;;;;;;;12.38;8.98;;;10.70;99.90;;;;;;5094297;28;20522;-71
2023/04/22 05:51:16;;;;;;;12.30;9.40;;;10.70;99.90;;;;;;5106641;28;20506;-71
2023/04/22 05:53:41;;;;;;;11.07;9.00;;;10.70;99.90;;;;;;5072873;28;20040;-71
2023/04/22 05:56:07;;;;;;;12.85;8.80;;;10.70;99.90;;;;;;5078970;28;20066;-71
2023/04/22 05:58:33;;;;;;;12.27;9.18;;;10.70;99.90;;;;;;5102450;28;20044;-71
2023/04/22 06:00:58;;;;;;;13.07;9.13;;;10.70;99.90;;;;;;5095207;28;20135;-71
2023/04/22 06:03:24;;;;;;;12.07;9.23;;;10.70;99.90;;;;;;5106123;28;20044;-71
2023/04/22 06:05:49;;;;;;;11.52;8.93;;;10.70;99.90;;;;;;5089421;28;20158;-71
2023/04/22 06:08:15;;;;;;;10.73;8.38;;;10.70;99.90;;;;;;5093446;28;20031;-71
2023/04/22 06:10:41;;;;;;;12.80;9.38;;;10.70;99.90;;;;;;5086753;28;20047;-71
2023/04/22 06:13:06;;;;;;;11.63;8.70;;;10.70;99.90;;;;;;5090145;28;20038;-71
2023/04/22 06:15:33;;;;;;;12.32;9.20;;;10.80;99.90;;;;;;5109920;28;20097;-69
2023/04/22 06:17:59;;;;;;;12.57;8.43;;;10.90;99.90;;;;;;5094839;28;20042;-68
2023/04/22 06:20:25;;;;;;;11.18;8.23;;;10.90;99.90;;;;;;5111408;28;20407;-72
2023/04/22 06:22:50;;;;;;;11.07;8.27;;;11.10;99.90;;;;;;5077027;28;20064;-70
2023/04/22 06:25:16;;;;;;;11.88;8.02;;;11.10;99.90;;;;;;5115910;27;20046;-71
2023/04/22 06:27:41;;;;;;;15.40;9.13;;;11.20;99.90;;;;;;5107045;28;20036;-70
2023/04/22 06:30:08;;;;;;;10.93;8.38;;;11.30;99.90;;;;;;5091730;28;20044;-71
2023/04/22 06:32:34;;;;;;;13.27;8.77;;;11.40;99.90;;;;;;5110531;28;20119;-71
2023/04/22 06:35:00;;;;;;;11.32;9.00;;;11.50;99.90;;;;;;5109835;28;20115;-71
2023/04/22 06:37:25;;;;;;;11.77;8.90;;;11.60;99.90;;;;;;5083517;28;20047;-71
2023/04/22 06:39:51;;;;;;;12.13;9.90;;;11.60;99.90;;;;;;5092790;28;20090;-71
2023/04/22 06:42:17;;;;;;;13.85;8.35;;;11.60;99.90;;;;;;5114413;28;20506;-71
2023/04/22 06:44:42;;;;;;;11.85;8.70;;;11.60;99.90;;;;;;5094219;28;20043;-71
2023/04/22 06:47:08;;;;;;;13.30;9.60;;;11.80;99.90;;;;;;5076529;28;20036;-71
2023/04/22 06:49:37;;;;;;;12.77;9.52;;;11.80;99.90;;;;;;5084326;28;20036;-71
2023/04/22 06:52:03;;;;;;;12.60;9.60;;;11.70;99.90;;;;;;5090450;28;20043;-71
2023/04/22 06:54:28;;;;;;;13.48;9.88;;;11.70;99.90;;;;;;5078381;28;20024;-71
2023/04/22 06:56:54;;;;;;;13.27;9.90;;;11.80;99.90;;;;;;5096600;28;20052;-71
2023/04/22 06:59:20;;;;;;;13.00;10.45;;;11.70;99.90;;;;;;5107238;28;20051;-71
2023/04/22 07:01:47;;;;;;;11.45;9.07;;;11.80;99.90;;;;;;5109141;28;20050;-71
2023/04/22 07:04:12;;;;;;;12.43;9.38;;;11.70;99.90;;;;;;5097830;28;20138;-71
2023/04/22 07:06:38;;;;;;;13.40;9.98;;;11.70;99.90;;;;;;5105455;28;20057;-71
2023/04/22 07:09:04;;;;;;;13.32;10.13;;;11.80;99.90;;;;;;5085154;28;20036;-71
2023/04/22 07:11:32;;;;;;;13.82;10.32;;;11.80;99.90;;;;;;5077409;28;20032;-71
2023/04/22 07:13:58;;;;;;;15.07;11.73;;;11.80;99.90;;;;;;5109394;28;20032;-72
2023/04/22 07:16:25;;;;;;;13.80;11.23;;;11.80;99.90;;;;;;5102177;28;20098;-71
2023/04/22 07:18:50;;;;;;;12.60;10.75;;;11.70;99.90;;;;;;5103781;28;20040;-71
2023/04/22 07:21:16;;;;;;;13.63;10.48;;;11.80;99.90;;;;;;5105621;28;20463;-72
2023/04/22 07:23:41;;;;;;;16.38;10.63;;;11.80;99.90;;;;;;5108900;28;20042;-70
2023/04/22 07:26:07;;;;;;;19.08;12.05;;;11.80;99.90;;;;;;5105752;28;20040;-72
2023/04/22 07:28:33;;;;;;;13.27;10.98;;;11.90;99.90;;;;;;5110899;28;20032;-69
2023/04/22 07:30:58;;;;;;;12.68;10.40;;;11.90;99.90;;;;;;5119355;27;20042;-70
2023/04/22 07:33:24;;;;;;;13.57;10.60;;;12.10;99.90;;;;;;5127667;27;20125;-70
2023/04/22 07:35:49;;;;;;;13.32;10.60;;;12.10;99.90;;;;;;5118702;27;20027;-70
2023/04/22 07:38:15;;;;;;;14.10;9.75;;;12.20;99.90;;;;;;5110634;28;20119;-70
2023/04/22 07:40:41;;;;;;;13.40;10.38;;;12.30;99.90;;;;;;5082756;28;20039;-70
2023/04/22 07:43:06;;;;;;;14.38;10.82;;;12.40;99.90;;;;;;5130732;27;20089;-70
2023/04/22 07:45:32;;;;;;;12.60;11.23;;;12.30;99.90;;;;;;5109789;28;20039;-70
2023/04/22 07:47:58;;;;;;;14.80;10.50;;;12.40;99.90;;;;;;5080077;28;20032;-70
2023/04/22 07:50:23;;;;;;;13.55;11.10;;;12.40;99.90;;;;;;5111927;28;20036;-70
2023/04/22 07:52:49;;;;;;;12.85;9.77;;;12.40;99.90;;;;;;5098806;28;20089;-70
2023/04/22 07:55:15;;;;;;;13.77;10.43;;;12.60;99.90;;;;;;5110706;28;20047;-70
2023/04/22 07:57:40;;;;;;;15.02;10.25;;;12.60;99.90;;;;;;5113933;27;20051;-70
2023/04/22 08:00:36;;;;;;;13.00;9.85;;;12.70;99.90;;;;;;5107598;28;20040;-71
2023/04/22 08:03:02;;;;;;;12.52;10.20;;;12.70;99.90;;;;;;5076262;28;20040;-70
2023/04/22 08:05:28;;;;;;;12.77;10.73;;;12.80;99.90;;;;;;5107215;28;20126;-70
2023/04/22 08:07:54;;;;;;;17.42;12.27;;;12.90;99.90;;;;;;5094791;28;20135;-70
2023/04/22 08:10:19;;;;;;;14.52;10.90;;;12.90;99.90;;;;;;5098750;28;20114;-70
2023/04/22 08:12:45;;;;;;;13.38;10.57;;;13.00;99.90;;;;;;5113100;27;20662;-70
2023/04/22 08:15:11;;;;;;;14.23;10.98;;;13.20;99.90;;;;;;5096267;28;20028;-70
2023/04/22 08:17:37;;;;;;;13.02;11.00;;;13.40;99.90;;;;;;5100567;28;20039;-70
2023/04/22 08:20:03;;;;;;;12.32;10.38;;;13.40;99.90;;;;;;5093496;28;20036;-71
2023/04/22 08:22:30;;;;;;;15.00;10.82;;;13.50;99.90;;;;;;5093234;28;20048;-69
2023/04/22 08:24:56;;;;;;;14.05;11.07;;;13.60;99.90;;;;;;5092757;28;20495;-70
2023/04/22 08:27:22;;;;;;;13.27;10.35;;;13.70;99.90;;;;;;5089560;28;20047;-69
2023/04/22 08:29:47;;;;;;;13.32;10.18;;;13.90;99.90;;;;;;5076211;28;20396;-70
2023/04/22 08:32:13;;;;;;;13.00;9.57;;;14.00;99.90;;;;;;5101000;28;20062;-70
2023/04/22 08:34:38;;;;;;;12.27;8.80;;;14.30;99.90;;;;;;5077868;28;20381;-70
2023/04/22 08:37:04;;;;;;;11.85;8.90;;;14.10;99.90;;;;;;5075948;28;20048;-70
2023/04/22 08:39:30;;;;;;;12.23;9.73;;;14.30;99.90;;;;;;5076040;28;20043;-70
2023/04/22 08:41:57;;;;;;;14.48;10.77;;;14.40;99.90;;;;;;5107055;28;20080;-70
2023/04/22 08:44:22;;;;;;;12.88;9.18;;;14.40;99.90;;;;;;5113399;28;20442;-70
2023/04/22 08:46:49;;;;;;;13.65;9.57;;;14.50;99.90;;;;;;5075509;28;20036;-70
2023/04/22 08:49:15;;;;;;;13.63;7.97;;;14.80;99.90;;;;;;5092478;28;20120;-70
2023/04/22 08:51:42;;;;;;;11.55;8.57;;;15.00;99.90;;;;;;5097805;28;20035;-70
2023/04/22 08:54:09;;;;;;;7.55;4.60;;;15.00;99.90;;;;;;5103485;28;20051;-70
2023/04/22 08:56:39;;;;;;;11.93;8.93;;;15.20;99.90;;;;;;5092404;28;20044;-70
2023/04/22 08:59:05;;;;;;;11.80;8.13;;;15.20;99.90;;;;;;5075876;28;20039;-70
2023/04/22 09:01:32;;;;;;;10.02;7.78;;;15.30;99.90;;;;;;5077041;28;20044;-70
2023/04/22 09:03:59;;;;;;;10.75;7.43;;;15.30;99.90;;;;;;5075437;28;20044;-71
2023/04/22 09:06:26;;;;;;;11.20;8.20;;;15.40;99.90;;;;;;5075393;28;20043;-70
2023/04/22 09:08:52;;;;;;;12.40;8.15;;;15.60;99.90;;;;;;5094202;28;20028;-71
2023/04/22 09:11:18;;;;;;;12.65;8.82;;;15.60;99.90;;;;;;5103215;28;20059;-71
2023/04/22 09:13:44;;;;;;;11.13;8.55;;;15.90;99.90;;;;;;5085074;28;20036;-71
2023/04/22 09:16:10;;;;;;;9.63;7.28;;;15.90;99.90;;;;;;5076866;28;20039;-71
2023/04/22 09:18:44;;;;;;;11.80;7.78;;;16.00;99.90;;;;;;5095564;28;20039;-71
2023/04/22 09:21:10;;;;;;;11.13;7.68;;;16.10;99.90;;;;;;5103410;28;20093;-71
2023/04/22 09:23:44;;;;;;;10.13;7.22;;;16.30;99.90;;;;;;5096474;28;20127;-71
2023/04/22 09:26:10;;;;;;;10.77;7.32;;;16.30;99.90;;;;;;5103413;28;20047;-70
2023/04/22 09:28:36;;;;;;;10.05;7.15;;;16.40;99.90;;;;;;5095142;28;20032;-71
2023/04/22 09:31:02;;;;;;;9.93;7.47;;;16.50;99.90;;;;;;5110442;28;20040;-71
2023/04/22 09:33:30;;;;;;;11.80;7.40;;;16.80;99.90;;;;;;5106239;28;20044;-71
2023/04/22 09:35:55;;;;;;;10.02;6.97;;;16.70;99.90;;;;;;5093418;28;20036;-71
2023/04/22 09:38:21;;;;;;;11.07;7.72;;;16.80;99.90;;;;;;5109259;28;20040;-71
2023/04/22 09:40:47;;;;;;;11.52;7.95;;;16.90;99.90;;;;;;5112637;28;20047;-71
2023/04/22 09:43:18;;;;;;;10.07;6.85;;;17.10;99.90;;;;;;5112337;28;20036;-71
2023/04/22 09:45:44;;;;;;;9.18;5.95;;;17.40;99.90;;;;;;5109254;28;20073;-71
2023/04/22 09:48:17;;;;;;;8.93;6.55;;;17.50;99.90;;;;;;5095135;28;20051;-71
2023/04/22 09:50:47;;;;;;;9.38;6.80;;;17.50;99.90;;;;;;5088541;28;20035;-71
2023/04/22 09:53:17;;;;;;;9.18;6.70;;;17.40;99.90;;;;;;5101359;28;20031;-71
2023/04/22 09:55:46;;;;;;;11.52;7.20;;;17.40;99.90;;;;;;5088340;28;20575;-71
2023/04/22 09:58:14;;;;;;;10.23;6.88;;;17.30;99.90;;;;;;5095161;28;20039;-71
2023/04/22 10:00:41;;;;;;;8.80;6.38;;;17.40;99.90;;;;;;5105193;28;20480;-71
2023/04/22 10:03:07;;;;;;;11.77;6.57;;;17.60;99.90;;;;;;5074925;28;20569;-71
2023/04/22 10:05:36;;;;;;;12.25;7.45;;;17.50;99.90;;;;;;5075123;28;20028;-71
2023/04/22 10:08:04;;;;;;;9.45;6.35;;;17.60;99.90;;;;;;5075336;28;20097;-71
2023/04/22 10:10:29;;;;;;;9.70;6.35;;;17.80;99.90;;;;;;5112410;28;20042;-71
2023/04/22 10:12:55;;;;;;;10.25;6.70;;;17.90;99.90;;;;;;5089985;28;20032;-71
2023/04/22 10:15:22;;;;;;;9.27;5.95;;;17.90;99.90;;;;;;5101829;28;20032;-71
2023/04/22 10:17:50;;;;;;;10.05;6.30;;;17.90;99.90;;;;;;5110722;28;20122;-71
2023/04/22 10:20:18;;;;;;;10.15;7.05;;;18.00;99.90;;;;;;5099214;28;20041;-71
2023/04/22 10:22:44;;;;;;;11.48;7.05;;;18.10;99.90;;;;;;5079121;28;20051;-71
2023/04/22 10:25:24;;;;;;;9.50;6.47;;;18.10;99.90;;;;;;5104285;28;20032;-71
2023/04/22 10:28:08;;;;;;;10.15;7.65;;;18.20;99.90;;;;;;5102173;28;20131;-71
2023/04/22 10:30:36;;;;;;;10.80;7.80;;;18.20;99.90;;;;;;5113249;28;20085;-71
2023/04/22 10:33:35;;;;;;;10.07;6.82;;;18.30;99.90;;;;;;5078504;28;20039;-70
2023/04/22 10:36:16;;;;;;;10.95;7.72;;;18.30;99.90;;;;;;5112379;28;20087;-70
2023/04/22 10:38:54;;;;;;;10.63;6.93;;;18.40;99.90;;;;;;5095190;28;20044;-70
2023/04/22 10:41:25;;;;;;;10.25;7.28;;;18.40;99.90;;;;;;5127233;27;20043;-70
2023/04/22 10:43:59;;;;;;;10.13;6.35;;;18.60;99.90;;;;;;5107163;28;20096;-70
2023/04/22 10:46:34;;;;;;;9.95;7.13;;;18.70;99.90;;;;;;5123805;27;20523;-70
2023/04/22 10:49:07;;;;;;;9.98;6.10;;;18.70;99.90;;;;;;5105451;28;20506;-70
2023/04/22 10:51:53;;;;;;;10.05;7.18;;;18.90;99.90;;;;;;5108550;28;20112;-70
2023/04/22 10:54:27;;;;;;;10.35;7.57;;;18.90;99.90;;;;;;5111810;28;20119;-70
2023/04/22 10:57:09;;;;;;;10.32;7.25;;;19.00;99.90;;;;;;5091958;28;20130;-70
2023/04/22 10:59:52;;;;;;;10.23;7.07;;;19.00;99.90;;;;;;5084887;28;20119;-70
2023/04/22 11:02:20;;;;;;;8.98;6.30;;;19.00;99.90;;;;;;5114100;28;20050;-70
2023/04/22 11:04:46;;;;;;;9.10;5.82;;;19.30;99.90;;;;;;5117284;27;20072;-70
2023/04/22 11:07:13;;;;;;;9.07;5.78;;;19.20;99.90;;;;;;5105973;28;20054;-70
2023/04/22 11:09:40;;;;;;;9.18;5.80;;;19.20;99.90;;;;;;5114986;28;20043;-70
2023/04/22 11:12:33;;;;;;;8.50;6.05;;;19.20;99.90;;;;;;5115373;28;20413;-70
2023/04/22 11:15:00;;;;;;;9.15;6.45;;;19.30;99.90;;;;;;5092732;28;20152;-70
2023/04/22 11:17:26;;;;;;;11.98;5.90;;;19.40;99.90;;;;;;5103468;28;20043;-70
2023/04/22 11:19:55;;;;;;;7.68;4.35;;;19.30;99.90;;;;;;5110971;27;20047;-70
2023/04/22 11:22:22;;;;;;;8.20;5.10;;;19.40;99.90;;;;;;5094749;28;20043;-70
2023/04/22 11:24:55;;;;;;;6.32;3.50;;;19.40;99.90;;;;;;5097987;28;20035;-70
2023/04/22 11:27:26;;;;;;;6.85;3.75;;;19.60;99.90;;;;;;5097909;28;20159;-71
2023/04/22 11:30:21;;;;;;;7.97;4.68;;;19.60;99.90;;;;;;5114627;28;20513;-71
2023/04/22 11:32:56;;;;;;;6.40;3.85;;;19.60;99.90;;;;;;5107760;27;20043;-70
2023/04/22 11:35:22;;;;;;;7.47;4.20;;;19.50;99.90;;;;;;5097463;28;20114;-71
2023/04/22 11:37:51;;;;;;;8.30;5.30;;;19.50;99.90;;;;;;5103774;28;20039;-70
2023/04/22 11:40:24;;;;;;;9.88;4.80;;;19.60;99.90;;;;;;5109086;28;20032;-71
2023/04/22 11:42:49;;;;;;;10.55;6.32;;;19.60;99.90;;;;;;5106693;28;20071;-70
2023/04/22 11:45:15;;;;;;;8.32;5.15;;;19.50;99.90;;;;;;5092467;28;20172;-71
2023/04/22 11:47:42;;;;;;;7.45;4.85;;;19.50;99.90;;;;;;5094815;28;20040;-71
2023/04/22 11:50:10;;;;;;;9.75;6.18;;;19.60;99.90;;;;;;5097149;28;20039;-71
2023/04/22 11:52:46;;;;;;;10.27;6.57;;;19.60;99.90;;;;;;5090359;27;20035;-71
2023/04/22 11:55:14;;;;;;;9.93;6.53;;;19.50;99.90;;;;;;5112179;27;20044;-71
2023/04/22 11:57:40;;;;;;;9.27;6.43;;;19.50;99.90;;;;;;5093686;28;20036;-70
2023/04/22 12:00:09;;;;;;;11.43;6.03;;;19.40;99.90;;;;;;5094548;28;20039;-71
2023/04/22 12:02:35;;;;;;;9.80;6.50;;;19.50;99.90;;;;;;5097288;28;20122;-68
2023/04/22 12:05:01;;;;;;;8.65;6.38;;;19.40;99.90;;;;;;5095773;28;20452;-70
2023/04/22 12:07:27;;;;;;;8.50;5.78;;;19.40;99.90;;;;;;5095760;28;20089;-70
2023/04/22 12:09:53;;;;;;;8.85;6.68;;;19.50;99.90;;;;;;5096808;28;20449;-70
2023/04/22 12:12:24;;;;;;;8.68;4.97;;;19.50;99.90;;;;;;5108023;28;20499;-69
2023/04/22 12:14:50;;;;;;;9.65;6.82;;;19.60;99.90;;;;;;5093107;28;20480;-69
2023/04/22 12:17:21;;;;;;;10.85;6.85;;;19.50;99.90;;;;;;5093396;28;20062;-69
2023/04/22 12:19:47;;;;;;;9.57;5.95;;;19.40;99.90;;;;;;5095177;28;20536;-69
2023/04/22 12:22:26;;;;;;;8.02;4.85;;;19.30;99.90;;;;;;5092934;28;20044;-69
2023/04/22 12:24:52;;;;;;;10.38;7.53;;;19.40;99.90;;;;;;5110719;28;20075;-69
2023/04/22 12:27:19;;;;;;;10.30;7.65;;;19.40;99.90;;;;;;5093309;28;20043;-69
2023/04/22 12:29:55;;;;;;;10.38;8.07;;;19.30;99.90;;;;;;5102488;28;20047;-68
2023/04/22 12:32:22;;;;;;;10.85;7.13;;;19.20;99.90;;;;;;5094104;28;20043;-68
2023/04/22 12:34:48;;;;;;;10.50;7.28;;;19.40;99.90;;;;;;5101495;28;20039;-69
2023/04/22 12:37:15;;;;;;;9.27;7.07;;;19.40;99.90;;;;;;5092866;28;20040;-69
2023/04/22 12:39:40;;;;;;;10.25;6.32;;;19.60;99.90;;;;;;5092401;28;20035;-69